createdAt,value
2022-11-20T00:00:11.672Z,19.45
2022-11-20T00:01:26.673Z,18.48
2022-11-20T00:02:29.900Z,17.52
2022-11-20T00:03:33.268Z,17.17
2022-11-20T00:04:36.533Z,18.08
2022-11-20T00:05:39.682Z,18.85
2022-11-20T00:06:42.731Z,17.40
2022-11-20T00:07:45.973Z,19.73
2022-11-20T00:08:49.926Z,16.25
2022-11-20T00:09:53.187Z,17.42
2022-11-20T00:10:56.536Z,20.20
2022-11-20T00:11:59.621Z,19.95
2022-11-20T00:13:02.816Z,18.50
2022-11-20T00:14:05.963Z,19.48
2022-11-20T00:15:10.008Z,18.85
2022-11-20T00:16:16.876Z,18.48
2022-11-20T00:17:19.989Z,17.55
2022-11-20T00:18:22.990Z,19.30
2022-11-20T00:19:26.063Z,19.50
2022-11-20T00:20:29.338Z,17.42
2022-11-20T00:21:32.570Z,19.88
2022-11-20T00:22:35.950Z,20.23
2022-11-20T00:23:39.254Z,20.38
2022-11-20T00:24:43.295Z,19.23
2022-11-20T00:25:46.688Z,18.83
2022-11-20T00:26:49.908Z,18.83
2022-11-20T00:27:53.143Z,19.30
2022-11-20T00:28:59.663Z,19.40
2022-11-20T00:30:02.999Z,17.60
2022-11-20T00:31:11.059Z,19.25
2022-11-20T00:32:14.048Z,18.55
2022-11-20T00:33:17.271Z,19.70
2022-11-20T00:34:20.417Z,19.77
2022-11-20T00:35:23.470Z,18.50
2022-11-20T00:36:29.631Z,19.63
2022-11-20T00:37:32.820Z,19.98
2022-11-20T00:38:36.475Z,19.85
2022-11-20T00:39:39.563Z,19.33
2022-11-20T00:40:42.608Z,18.92
2022-11-20T00:41:45.876Z,19.20
2022-11-20T00:42:48.954Z,18.98
2022-11-20T00:43:54.564Z,18.65
2022-11-20T00:44:57.797Z,21.52
2022-11-20T00:46:04.441Z,18.85
2022-11-20T00:47:07.486Z,18.75
2022-11-20T00:48:10.584Z,21.13
2022-11-20T00:49:13.641Z,21.65
2022-11-20T00:50:16.970Z,18.67
2022-11-20T00:51:25.795Z,21.90
2022-11-20T00:52:28.994Z,21.00
2022-11-20T00:53:32.448Z,20.40
2022-11-20T00:54:35.511Z,19.95
2022-11-20T00:55:38.645Z,20.80
2022-11-20T00:56:41.791Z,20.35
2022-11-20T00:57:44.977Z,20.58
2022-11-20T00:58:49.935Z,20.13
2022-11-20T00:59:53.034Z,20.00
2022-11-20T01:01:06.750Z,18.70
2022-11-20T01:02:09.971Z,18.95
2022-11-20T01:03:12.893Z,21.75
2022-11-20T01:04:16.150Z,20.23
2022-11-20T01:05:19.250Z,20.33
2022-11-20T01:06:25.294Z,21.23
2022-11-20T01:07:28.575Z,19.70
2022-11-20T01:08:34.286Z,20.42
2022-11-20T01:09:37.794Z,19.92
2022-11-20T01:10:40.944Z,20.23
2022-11-20T01:11:46.060Z,23.00
2022-11-20T01:13:09.112Z,21.20
2022-11-20T01:14:16.957Z,20.38
2022-11-20T01:15:20.115Z,20.77
2022-11-20T01:16:31.738Z,20.83
2022-11-20T01:17:35.473Z,19.38
2022-11-20T01:18:41.157Z,20.45
2022-11-20T01:19:45.308Z,22.13
2022-11-20T01:20:48.583Z,20.08
2022-11-20T01:21:54.763Z,20.60
2022-11-20T01:22:57.828Z,21.13
2022-11-20T01:24:01.862Z,19.52
2022-11-20T01:25:05.428Z,20.55
2022-11-20T01:26:15.178Z,21.13
2022-11-20T01:27:18.290Z,21.33
2022-11-20T01:28:21.288Z,21.85
2022-11-20T01:29:25.773Z,20.75
2022-11-20T01:30:29.770Z,20.60
2022-11-20T01:31:38.043Z,21.02
2022-11-20T01:32:41.178Z,20.42
2022-11-20T01:33:46.233Z,22.38
2022-11-20T01:34:49.303Z,20.23
2022-11-20T01:35:52.852Z,22.70
2022-11-20T01:36:56.165Z,22.00
2022-11-20T01:37:59.690Z,21.35
2022-11-20T01:39:08.011Z,21.50
2022-11-20T01:40:12.471Z,22.20
2022-11-20T01:41:36.774Z,22.42
2022-11-20T01:43:11.628Z,19.17
2022-11-20T01:44:19.545Z,21.10
2022-11-20T01:46:15.093Z,22.05
2022-11-20T01:47:35.784Z,19.45
2022-11-20T01:49:18.163Z,18.58
2022-11-20T01:50:29.820Z,19.48
2022-11-20T01:52:00.906Z,20.00
2022-11-20T01:53:09.537Z,21.15
2022-11-20T01:54:36.409Z,20.13
2022-11-20T01:55:50.986Z,20.23
2022-11-20T01:56:58.308Z,19.27
2022-11-20T01:58:03.895Z,20.85
2022-11-20T01:59:09.426Z,22.13
2022-11-20T02:00:17.421Z,21.13
2022-11-20T02:01:22.042Z,22.00
2022-11-20T02:02:26.321Z,19.75
2022-11-20T02:03:29.922Z,20.20
2022-11-20T02:04:33.010Z,19.23
2022-11-20T02:05:52.379Z,20.77
2022-11-20T02:07:03.528Z,20.90
2022-11-20T02:08:07.736Z,21.20
2022-11-20T02:09:11.248Z,20.70
2022-11-20T02:10:15.377Z,20.02
2022-11-20T02:11:18.420Z,22.45
2022-11-20T02:12:40.433Z,20.00
2022-11-20T02:13:46.587Z,19.55
2022-11-20T02:14:50.495Z,20.70
2022-11-20T02:15:54.899Z,21.25
2022-11-20T02:16:58.944Z,19.88
2022-11-20T02:18:03.028Z,22.75
2022-11-20T02:19:14.870Z,19.98
2022-11-20T02:20:18.929Z,19.08
2022-11-20T02:21:35.656Z,23.95
2022-11-20T02:23:06.146Z,21.90
2022-11-20T02:24:27.179Z,20.95
2022-11-20T02:25:31.899Z,22.60
2022-11-20T02:26:47.396Z,18.55
2022-11-20T02:27:51.469Z,20.58
2022-11-20T02:28:55.925Z,19.58
2022-11-20T02:30:04.392Z,19.90
2022-11-20T02:31:07.722Z,19.42
2022-11-20T02:32:32.436Z,19.05
2022-11-20T02:33:35.628Z,20.48
2022-11-20T02:34:38.757Z,19.88
2022-11-20T02:35:45.962Z,20.15
2022-11-20T02:36:50.690Z,21.10
2022-11-20T02:37:57.734Z,18.05
2022-11-20T02:39:00.979Z,18.98
2022-11-20T02:40:05.204Z,20.20
2022-11-20T02:41:08.499Z,20.33
2022-11-20T02:42:11.698Z,19.42
2022-11-20T02:43:16.628Z,20.00
2022-11-20T02:44:19.605Z,21.63
2022-11-20T02:45:23.846Z,19.85
2022-11-20T02:46:26.941Z,19.52
2022-11-20T02:47:30.157Z,20.38
2022-11-20T02:48:34.104Z,22.65
2022-11-20T02:49:37.290Z,22.08
2022-11-20T02:50:41.397Z,20.88
2022-11-20T02:51:44.527Z,19.08
2022-11-20T02:52:47.718Z,18.52
2022-11-20T02:53:51.360Z,20.25
2022-11-20T02:54:54.581Z,19.90
2022-11-20T02:55:57.621Z,20.58
2022-11-20T02:57:00.844Z,19.45
2022-11-20T02:58:03.889Z,19.13
2022-11-20T02:59:07.363Z,20.02
2022-11-20T03:00:11.500Z,20.20
2022-11-20T03:01:14.883Z,19.40
2022-11-20T03:02:17.977Z,20.52
2022-11-20T03:03:21.356Z,20.58
2022-11-20T03:04:24.936Z,21.65
2022-11-20T03:05:28.280Z,20.23
2022-11-20T03:06:31.378Z,19.13
2022-11-20T03:07:34.941Z,21.85
2022-11-20T03:08:38.009Z,19.55
2022-11-20T03:09:41.005Z,20.35
2022-11-20T03:10:44.175Z,19.08
2022-11-20T03:11:47.178Z,21.80
2022-11-20T03:12:57.507Z,20.27
2022-11-20T03:14:05.321Z,20.02
2022-11-20T03:15:09.938Z,20.58
2022-11-20T03:16:19.184Z,21.15
2022-11-20T03:17:22.948Z,18.50
2022-11-20T03:18:29.861Z,20.33
2022-11-20T03:19:33.223Z,18.88
2022-11-20T03:20:36.442Z,20.27
2022-11-20T03:21:39.614Z,17.85
2022-11-20T03:22:42.591Z,20.10
2022-11-20T03:23:45.647Z,19.23
2022-11-20T03:24:48.950Z,18.42
2022-11-20T03:25:52.127Z,20.27
2022-11-20T03:26:55.144Z,19.77
2022-11-20T03:27:58.256Z,19.58
2022-11-20T03:29:05.070Z,19.05
2022-11-20T03:30:09.346Z,20.27
2022-11-20T03:31:17.042Z,21.23
2022-11-20T03:32:20.661Z,19.45
2022-11-20T03:33:23.835Z,19.70
2022-11-20T03:34:26.830Z,17.52
2022-11-20T03:35:29.868Z,20.00
2022-11-20T03:36:33.742Z,18.48
2022-11-20T03:37:36.912Z,20.48
2022-11-20T03:38:40.574Z,19.30
2022-11-20T03:39:43.899Z,18.85
2022-11-20T03:40:47.003Z,21.60
2022-11-20T03:41:50.152Z,20.05
2022-11-20T03:42:54.290Z,19.25
2022-11-20T03:44:04.519Z,20.88
2022-11-20T03:45:08.508Z,20.20
2022-11-20T03:46:12.966Z,20.15
2022-11-20T03:47:16.029Z,18.67
2022-11-20T03:48:19.087Z,20.55
2022-11-20T03:49:22.519Z,19.00
2022-11-20T03:50:25.833Z,20.67
2022-11-20T03:51:32.182Z,21.30
2022-11-20T03:52:35.465Z,18.50
2022-11-20T03:53:39.719Z,21.63
2022-11-20T03:54:42.758Z,20.42
2022-11-20T03:55:45.876Z,18.27
2022-11-20T03:56:48.970Z,19.35
2022-11-20T03:57:52.323Z,22.63
2022-11-20T03:58:55.756Z,20.85
2022-11-20T04:00:01.163Z,19.90
2022-11-20T04:01:29.053Z,20.02
2022-11-20T04:02:32.520Z,19.77
2022-11-20T04:03:37.645Z,20.02
2022-11-20T04:04:40.761Z,19.65
2022-11-20T04:05:43.985Z,20.73
2022-11-20T04:06:47.188Z,19.85
2022-11-20T04:07:50.374Z,19.77
2022-11-20T04:08:57.088Z,19.20
2022-11-20T04:10:00.139Z,19.98
2022-11-20T04:11:14.360Z,23.15
2022-11-20T04:12:18.156Z,19.88
2022-11-20T04:13:21.198Z,17.25
2022-11-20T04:14:24.612Z,19.55
2022-11-20T04:15:27.799Z,20.00
2022-11-20T04:16:33.529Z,19.75
2022-11-20T04:17:36.962Z,19.38
2022-11-20T04:18:40.390Z,19.23
2022-11-20T04:19:43.486Z,21.88
2022-11-20T04:20:46.642Z,20.65
2022-11-20T04:21:49.759Z,19.50
2022-11-20T04:22:55.746Z,18.20
2022-11-20T04:23:59.118Z,20.60
2022-11-20T04:25:02.135Z,19.92
2022-11-20T04:26:13.812Z,20.38
2022-11-20T04:27:16.971Z,19.40
2022-11-20T04:28:20.371Z,18.42
2022-11-20T04:29:23.708Z,20.65
2022-11-20T04:30:26.876Z,20.20
2022-11-20T04:31:33.643Z,21.17
2022-11-20T04:32:36.849Z,18.65
2022-11-20T04:33:40.497Z,20.05
2022-11-20T04:34:43.781Z,20.80
2022-11-20T04:35:48.952Z,19.60
2022-11-20T04:36:52.094Z,19.05
2022-11-20T04:37:55.225Z,19.92
2022-11-20T04:39:01.990Z,20.83
2022-11-20T04:40:05.923Z,20.63
2022-11-20T04:41:18.490Z,20.08
2022-11-20T04:42:30.879Z,18.45
2022-11-20T04:43:35.205Z,21.05
2022-11-20T04:44:38.446Z,21.42
2022-11-20T04:45:41.517Z,19.40
2022-11-20T04:46:44.708Z,20.30
2022-11-20T04:47:48.008Z,20.40
2022-11-20T04:48:51.172Z,21.40
2022-11-20T04:49:54.635Z,20.23
2022-11-20T04:50:58.094Z,19.70
2022-11-20T04:52:01.359Z,18.30
2022-11-20T04:53:04.985Z,23.08
2022-11-20T04:54:08.082Z,21.25
2022-11-20T04:55:11.228Z,19.33
2022-11-20T04:56:15.180Z,20.25
2022-11-20T04:57:18.183Z,19.75
2022-11-20T04:58:21.267Z,21.60
2022-11-20T04:59:24.513Z,19.35
2022-11-20T05:00:27.980Z,20.02
2022-11-20T05:01:31.785Z,22.23
2022-11-20T05:02:35.007Z,21.90
2022-11-20T05:03:42.160Z,18.60
2022-11-20T05:04:45.748Z,18.83
2022-11-20T05:05:48.861Z,20.17
2022-11-20T05:06:52.837Z,19.58
2022-11-20T05:07:58.877Z,20.40
2022-11-20T05:09:03.151Z,19.95
2022-11-20T05:10:07.404Z,20.08
2022-11-20T05:11:20.308Z,19.52
2022-11-20T05:12:23.712Z,21.17
2022-11-20T05:13:27.909Z,21.15
2022-11-20T05:14:31.095Z,20.35
2022-11-20T05:15:34.330Z,18.42
2022-11-20T05:16:37.507Z,20.83
2022-11-20T05:17:47.490Z,19.65
2022-11-20T05:18:52.655Z,19.73
2022-11-20T05:19:55.794Z,18.95
2022-11-20T05:20:59.811Z,21.27
2022-11-20T05:22:02.965Z,18.98
2022-11-20T05:23:06.058Z,20.45
2022-11-20T05:24:09.462Z,19.98
2022-11-20T05:25:12.792Z,19.80
2022-11-20T05:26:22.581Z,21.67
2022-11-20T05:27:25.799Z,20.63
2022-11-20T05:28:30.628Z,18.98
2022-11-20T05:29:33.710Z,19.73
2022-11-20T05:30:36.747Z,18.98
2022-11-20T05:31:41.953Z,20.30
2022-11-20T05:32:44.979Z,18.50
2022-11-20T05:33:48.465Z,18.33
2022-11-20T05:34:51.755Z,19.05
2022-11-20T05:35:58.806Z,19.30
2022-11-20T05:37:02.120Z,18.85
2022-11-20T05:38:05.271Z,18.88
2022-11-20T05:39:08.374Z,19.40
2022-11-20T05:40:12.577Z,20.05
2022-11-20T05:41:20.570Z,19.13
2022-11-20T05:42:32.803Z,20.23
2022-11-20T05:43:38.029Z,18.17
2022-11-20T05:44:41.284Z,19.65
2022-11-20T05:45:52.163Z,21.10
2022-11-20T05:46:55.170Z,21.95
2022-11-20T05:48:02.146Z,19.13
2022-11-20T05:49:05.436Z,21.77
2022-11-20T05:50:10.996Z,20.33
2022-11-20T05:51:19.772Z,20.77
2022-11-20T05:52:22.780Z,19.08
2022-11-20T05:53:27.716Z,19.75
2022-11-20T05:54:30.994Z,20.05
2022-11-20T05:55:34.138Z,19.52
2022-11-20T05:56:37.104Z,19.23
2022-11-20T05:57:40.288Z,18.77
2022-11-20T05:58:44.424Z,19.70
2022-11-20T05:59:49.702Z,20.75
2022-11-20T06:00:53.262Z,18.23
2022-11-20T06:01:56.474Z,21.33
2022-11-20T06:02:59.567Z,19.63
2022-11-20T06:04:03.075Z,21.13
2022-11-20T06:05:06.817Z,19.77
2022-11-20T06:06:10.312Z,20.50
2022-11-20T06:07:13.507Z,20.48
2022-11-20T06:08:16.988Z,18.85
2022-11-20T06:09:20.166Z,21.35
2022-11-20T06:10:23.576Z,19.05
2022-11-20T06:11:27.138Z,19.88
2022-11-20T06:12:32.943Z,21.70
2022-11-20T06:13:40.734Z,18.52
2022-11-20T06:14:45.070Z,20.55
2022-11-20T06:15:54.932Z,19.20
2022-11-20T06:16:58.211Z,20.15
2022-11-20T06:18:01.365Z,19.95
2022-11-20T06:19:04.851Z,21.35
2022-11-20T06:20:09.572Z,20.38
2022-11-20T06:21:16.263Z,21.02
2022-11-20T06:22:19.387Z,18.70
2022-11-20T06:23:22.467Z,20.45
2022-11-20T06:24:26.530Z,20.77
2022-11-20T06:25:29.614Z,21.30
2022-11-20T06:26:32.904Z,20.80
2022-11-20T06:27:36.213Z,22.00
2022-11-20T06:28:41.816Z,18.30
2022-11-20T06:29:45.145Z,21.55
2022-11-20T06:30:48.246Z,22.15
2022-11-20T06:31:51.413Z,21.52
2022-11-20T06:32:54.504Z,20.77
2022-11-20T06:33:59.552Z,21.10
2022-11-20T06:35:02.684Z,21.65
2022-11-20T06:36:10.676Z,22.38
2022-11-20T06:37:14.065Z,20.48
2022-11-20T06:38:17.321Z,22.15
2022-11-20T06:39:20.749Z,22.48
2022-11-20T06:40:24.154Z,22.15
2022-11-20T06:41:28.970Z,20.67
2022-11-20T06:42:32.056Z,20.55
2022-11-20T06:43:35.082Z,20.05
2022-11-20T06:44:38.196Z,20.60
2022-11-20T06:45:42.198Z,22.08
2022-11-20T06:46:45.469Z,21.40
2022-11-20T06:47:48.711Z,21.38
2022-11-20T06:48:52.351Z,20.73
2022-11-20T06:49:55.595Z,23.48
2022-11-20T06:50:59.261Z,23.20
2022-11-20T06:52:02.442Z,22.42
2022-11-20T06:53:06.510Z,23.20
2022-11-20T06:54:09.650Z,20.42
2022-11-20T06:55:12.709Z,21.65
2022-11-20T06:56:15.881Z,21.38
2022-11-20T06:57:20.813Z,21.40
2022-11-20T06:58:24.368Z,22.17
2022-11-20T06:59:27.653Z,21.83
2022-11-20T07:00:30.982Z,20.48
2022-11-20T07:01:34.780Z,20.67
2022-11-20T07:02:37.858Z,21.63
2022-11-20T07:03:41.616Z,22.52
2022-11-20T07:04:44.729Z,22.45
2022-11-20T07:05:47.863Z,20.92
2022-11-20T07:06:51.172Z,23.98
2022-11-20T07:07:58.506Z,23.55
2022-11-20T07:09:02.608Z,21.23
2022-11-20T07:10:06.809Z,22.60
2022-11-20T07:11:12.842Z,22.20
2022-11-20T07:12:15.943Z,23.17
2022-11-20T07:13:19.377Z,21.45
2022-11-20T07:14:22.536Z,23.00
2022-11-20T07:15:26.681Z,22.15
2022-11-20T07:16:29.755Z,20.77
2022-11-20T07:17:32.844Z,23.00
2022-11-20T07:18:37.228Z,20.02
2022-11-20T07:19:40.383Z,21.00
2022-11-20T07:20:43.515Z,23.95
2022-11-20T07:21:46.737Z,23.35
2022-11-20T07:22:56.078Z,20.92
2022-11-20T07:23:59.312Z,21.88
2022-11-20T07:25:02.978Z,22.50
2022-11-20T07:26:11.287Z,22.13
2022-11-20T07:27:14.521Z,21.75
2022-11-20T07:28:17.594Z,21.90
2022-11-20T07:29:20.985Z,23.58
2022-11-20T07:30:24.332Z,21.58
2022-11-20T07:31:27.458Z,22.73
2022-11-20T07:32:30.943Z,22.85
2022-11-20T07:33:34.195Z,21.80
2022-11-20T07:34:37.329Z,22.25
2022-11-20T07:35:40.667Z,20.70
2022-11-20T07:36:43.876Z,23.33
2022-11-20T07:37:48.209Z,21.35
2022-11-20T07:38:51.444Z,21.65
2022-11-20T07:39:54.902Z,23.45
2022-11-20T07:40:58.957Z,23.52
2022-11-20T07:42:02.065Z,25.52
2022-11-20T07:43:05.648Z,25.05
2022-11-20T07:44:08.727Z,23.85
2022-11-20T07:45:12.437Z,23.73
2022-11-20T07:46:15.680Z,24.58
2022-11-20T07:47:18.833Z,25.08
2022-11-20T07:48:22.147Z,25.63
2022-11-20T07:49:25.481Z,23.88
2022-11-20T07:50:28.664Z,22.77
2022-11-20T07:51:31.738Z,25.33
2022-11-20T07:52:34.946Z,23.88
2022-11-20T07:53:38.152Z,23.42
2022-11-20T07:54:41.291Z,23.80
2022-11-20T07:55:44.819Z,23.00
2022-11-20T07:56:49.389Z,22.95
2022-11-20T07:57:58.776Z,24.60
2022-11-20T07:59:01.958Z,22.45
2022-11-20T08:00:11.077Z,22.52
2022-11-20T08:01:17.462Z,22.95
2022-11-20T08:02:20.674Z,24.85
2022-11-20T08:03:25.097Z,23.67
2022-11-20T08:04:28.486Z,23.80
2022-11-20T08:05:31.716Z,23.13
2022-11-20T08:06:34.984Z,23.33
2022-11-20T08:07:44.416Z,24.52
2022-11-20T08:08:47.625Z,25.35
2022-11-20T08:09:50.740Z,24.98
2022-11-20T08:11:14.072Z,25.20
2022-11-20T08:12:40.588Z,25.65
2022-11-20T08:14:02.339Z,23.05
2022-11-20T08:15:12.570Z,23.20
2022-11-20T08:16:16.531Z,24.25
2022-11-20T08:17:19.686Z,26.83
2022-11-20T08:18:31.108Z,27.00
2022-11-20T08:19:35.404Z,24.65
2022-11-20T08:20:39.731Z,24.67
2022-11-20T08:21:43.266Z,24.80
2022-11-20T08:22:46.521Z,24.63
2022-11-20T08:23:49.957Z,22.73
2022-11-20T08:24:53.051Z,23.83
2022-11-20T08:25:56.269Z,26.70
2022-11-20T08:27:00.665Z,24.10
2022-11-20T08:28:18.351Z,24.83
2022-11-20T08:29:24.106Z,23.92
2022-11-20T08:30:28.393Z,23.40
2022-11-20T08:31:32.574Z,24.60
2022-11-20T08:32:38.296Z,24.80
2022-11-20T08:33:41.532Z,25.00
2022-11-20T08:34:44.802Z,25.33
2022-11-20T08:35:47.863Z,24.98
2022-11-20T08:36:51.128Z,24.88
2022-11-20T08:37:54.368Z,23.85
2022-11-20T08:38:57.702Z,25.15
2022-11-20T08:40:00.846Z,25.80
2022-11-20T08:41:24.834Z,23.92
2022-11-20T08:42:27.979Z,26.17
2022-11-20T08:43:31.240Z,24.40
2022-11-20T08:44:34.566Z,25.25
2022-11-20T08:45:37.794Z,28.30
2022-11-20T08:46:44.713Z,26.25
2022-11-20T08:47:48.195Z,25.95
2022-11-20T08:48:51.789Z,27.48
2022-11-20T08:49:54.872Z,25.83
2022-11-20T08:51:00.582Z,25.05
2022-11-20T08:52:03.745Z,25.73
2022-11-20T08:53:07.388Z,25.63
2022-11-20T08:54:10.866Z,24.55
2022-11-20T08:55:14.281Z,25.80
2022-11-20T08:56:18.588Z,25.58
2022-11-20T08:57:21.687Z,23.73
2022-11-20T08:58:25.683Z,24.65
2022-11-20T09:00:04.012Z,24.88
2022-11-20T09:00:52.154Z,25.63
2022-11-20T09:01:56.117Z,25.50
2022-11-20T09:02:59.992Z,26.48
2022-11-20T09:04:04.842Z,25.05
2022-11-20T09:05:08.150Z,25.10
2022-11-20T09:06:11.226Z,25.08
2022-11-20T09:07:15.277Z,24.85
2022-11-20T09:08:18.686Z,25.80
2022-11-20T09:09:22.571Z,22.98
2022-11-20T09:10:27.038Z,24.23
2022-11-20T09:11:30.548Z,24.95
2022-11-20T09:12:34.007Z,22.77
2022-11-20T09:13:37.863Z,24.75
2022-11-20T09:14:41.417Z,24.00
2022-11-20T09:15:44.635Z,24.60
2022-11-20T09:16:47.822Z,24.55
2022-11-20T09:18:02.213Z,24.85
2022-11-20T09:19:35.106Z,25.85
2022-11-20T09:20:31.104Z,25.20
2022-11-20T09:21:34.275Z,24.15
2022-11-20T09:22:42.002Z,24.63
2022-11-20T09:23:45.373Z,26.63
2022-11-20T09:24:48.852Z,25.15
2022-11-20T09:25:52.192Z,25.70
2022-11-20T09:26:55.308Z,27.05
2022-11-20T09:28:00.193Z,25.00
2022-11-20T09:29:03.791Z,25.23
2022-11-20T09:30:08.448Z,24.45
2022-11-20T09:31:25.522Z,22.88
2022-11-20T09:32:28.996Z,22.75
2022-11-20T09:33:32.352Z,23.98
2022-11-20T09:34:35.697Z,22.83
2022-11-20T09:35:39.034Z,23.27
2022-11-20T09:36:42.379Z,24.30
2022-11-20T09:37:46.270Z,22.10
2022-11-20T09:38:49.996Z,22.00
2022-11-20T09:39:53.139Z,22.88
2022-11-20T09:41:03.018Z,23.10
2022-11-20T09:42:16.448Z,25.23
2022-11-20T09:43:34.691Z,25.10
2022-11-20T09:45:19.359Z,23.10
2022-11-20T09:46:38.623Z,22.50
2022-11-20T09:48:17.999Z,21.90
2022-11-20T09:49:58.896Z,22.38
2022-11-20T09:51:39.995Z,23.77
2022-11-20T09:53:06.141Z,24.42
2022-11-20T09:54:35.497Z,26.23
2022-11-20T09:55:39.878Z,24.58
2022-11-20T09:56:57.512Z,22.13
2022-11-20T09:58:01.164Z,23.40
2022-11-20T09:59:08.144Z,23.83
2022-11-20T10:00:15.402Z,23.73
2022-11-20T10:01:24.571Z,24.40
2022-11-20T10:03:17.852Z,24.42
2022-11-20T10:04:22.728Z,24.98
2022-11-20T10:05:54.149Z,25.30
2022-11-20T10:07:36.020Z,23.83
2022-11-20T10:09:34.126Z,21.95
2022-11-20T10:11:14.746Z,22.38
2022-11-20T10:12:42.660Z,22.55
2022-11-20T10:14:25.640Z,22.85
2022-11-20T10:15:58.801Z,22.48
2022-11-20T10:17:05.138Z,24.88
2022-11-20T10:18:38.028Z,23.23
2022-11-20T10:19:52.373Z,22.95
2022-11-20T10:21:29.104Z,22.38
2022-11-20T10:23:02.197Z,22.20
2022-11-20T10:24:28.446Z,20.80
2022-11-20T10:26:20.646Z,23.88
2022-11-20T10:27:33.358Z,22.77
2022-11-20T10:28:57.197Z,22.13
2022-11-20T10:30:14.798Z,22.60
2022-11-20T10:31:41.703Z,21.92
2022-11-20T10:32:52.584Z,23.55
2022-11-20T10:34:11.609Z,22.73
2022-11-20T10:35:23.153Z,22.40
2022-11-20T10:36:37.810Z,23.77
2022-11-20T10:37:47.543Z,22.52
2022-11-20T10:38:58.119Z,19.25
2022-11-20T10:40:26.039Z,23.55
2022-11-20T10:41:38.232Z,22.42
2022-11-20T10:42:52.197Z,22.90
2022-11-20T10:44:36.471Z,21.35
2022-11-20T10:46:13.611Z,19.30
2022-11-20T10:47:19.442Z,20.52
2022-11-20T10:48:26.552Z,23.05
2022-11-20T10:49:29.770Z,22.58
2022-11-20T10:50:35.662Z,23.00
2022-11-20T10:52:08.738Z,21.73
2022-11-20T10:53:59.001Z,21.02
2022-11-20T10:55:26.458Z,22.10
2022-11-20T10:56:50.393Z,21.17
2022-11-20T10:58:15.289Z,22.83
2022-11-20T10:59:41.798Z,21.95
2022-11-20T11:00:45.177Z,23.27
2022-11-20T11:01:48.478Z,23.30
2022-11-20T11:02:54.784Z,21.30
2022-11-20T11:03:59.535Z,24.95
2022-11-20T11:05:27.082Z,25.63
2022-11-20T11:06:48.069Z,22.48
2022-11-20T11:07:56.230Z,22.85
2022-11-20T11:09:10.072Z,22.20
2022-11-20T11:10:22.263Z,22.48
2022-11-20T11:11:35.708Z,23.10
2022-11-20T11:12:50.985Z,21.38
2022-11-20T11:13:54.132Z,20.85
2022-11-20T11:14:59.018Z,21.20
2022-11-20T11:16:03.925Z,21.88
2022-11-20T11:17:33.631Z,21.55
2022-11-20T11:18:37.226Z,21.88
2022-11-20T11:19:40.370Z,22.60
2022-11-20T11:20:52.540Z,21.75
2022-11-20T11:21:57.950Z,22.67
2022-11-20T11:23:01.670Z,23.90
2022-11-20T11:24:34.720Z,24.73
2022-11-20T11:25:34.979Z,24.70
2022-11-20T11:26:38.210Z,24.58
2022-11-20T11:27:52.484Z,25.83
2022-11-20T11:28:58.911Z,23.27
2022-11-20T11:30:19.440Z,24.10
2022-11-20T11:31:31.959Z,22.48
2022-11-20T11:32:34.998Z,23.45
2022-11-20T11:33:38.320Z,22.65
2022-11-20T11:34:41.636Z,24.05
2022-11-20T11:36:00.874Z,21.58
2022-11-20T11:37:05.372Z,22.27
2022-11-20T11:38:18.728Z,22.13
2022-11-20T11:39:22.853Z,25.75
2022-11-20T11:40:30.864Z,22.42
2022-11-20T11:41:38.127Z,22.88
2022-11-20T11:42:51.347Z,20.70
2022-11-20T11:44:17.774Z,20.80
2022-11-20T11:45:21.568Z,20.45
2022-11-20T11:46:36.141Z,20.02
2022-11-20T11:47:49.338Z,21.75
2022-11-20T11:49:12.871Z,20.67
2022-11-20T11:50:23.485Z,20.50
2022-11-20T11:51:54.501Z,19.10
2022-11-20T11:54:26.152Z,19.30
2022-11-20T11:56:09.754Z,19.90
2022-11-20T11:57:40.510Z,20.33
2022-11-20T11:58:52.949Z,21.05
2022-11-20T12:00:10.213Z,21.20
2022-11-20T12:01:51.916Z,21.20
2022-11-20T12:03:19.511Z,19.98
2022-11-20T12:04:47.386Z,21.23
2022-11-20T12:06:00.846Z,20.90
2022-11-20T12:07:45.933Z,21.15
2022-11-20T12:09:13.914Z,20.45
2022-11-20T12:10:22.411Z,21.58
2022-11-20T12:11:54.354Z,21.52
2022-11-20T12:13:10.724Z,21.63
2022-11-20T12:14:28.392Z,21.30
2022-11-20T12:15:35.071Z,21.00
2022-11-20T12:16:40.035Z,19.58
2022-11-20T12:17:43.245Z,22.33
2022-11-20T12:18:53.555Z,21.90
2022-11-20T12:19:57.458Z,21.17
2022-11-20T12:21:27.567Z,20.60
2022-11-20T12:23:03.067Z,19.67
2022-11-20T12:24:37.875Z,20.27
2022-11-20T12:25:49.271Z,19.70
2022-11-20T12:27:28.716Z,21.48
2022-11-20T12:28:53.721Z,18.65
2022-11-20T12:30:09.783Z,20.92
2022-11-20T12:31:46.886Z,20.45
2022-11-20T12:33:28.762Z,22.45
2022-11-20T12:35:01.791Z,21.60
2022-11-20T12:36:44.777Z,22.23
2022-11-20T12:38:03.423Z,19.33
2022-11-20T12:39:18.170Z,19.98
2022-11-20T12:40:42.774Z,19.83
2022-11-20T12:42:46.766Z,20.50
2022-11-20T12:44:42.856Z,20.27
2022-11-20T12:46:41.900Z,20.73
2022-11-20T12:47:57.005Z,19.27
2022-11-20T12:49:06.347Z,21.35
2022-11-20T12:52:51.387Z,19.88
2022-11-20T12:54:15.610Z,19.75
2022-11-20T12:55:43.689Z,20.15
2022-11-20T12:57:04.413Z,20.13
2022-11-20T12:58:50.960Z,20.77
2022-11-20T13:00:21.585Z,21.40
2022-11-20T13:01:43.742Z,18.98
2022-11-20T13:03:24.438Z,19.40
2022-11-20T13:05:10.268Z,20.98
2022-11-20T13:06:16.588Z,20.05
2022-11-20T13:07:21.617Z,19.30
2022-11-20T13:08:31.296Z,21.00
2022-11-20T13:09:38.589Z,20.27
2022-11-20T13:11:04.203Z,20.77
2022-11-20T13:12:28.625Z,19.95
2022-11-20T13:13:56.724Z,20.63
2022-11-20T13:15:04.005Z,19.40
2022-11-20T13:16:18.390Z,21.88
2022-11-20T13:17:39.638Z,20.92
2022-11-20T13:18:44.390Z,20.25
2022-11-20T13:19:55.452Z,21.25
2022-11-20T13:20:58.719Z,21.38
2022-11-20T13:22:02.433Z,21.77
2022-11-20T13:23:05.497Z,22.52
2022-11-20T13:24:31.723Z,20.73
2022-11-20T13:25:40.785Z,20.88
2022-11-20T13:26:43.900Z,20.27
2022-11-20T13:27:51.298Z,20.98
2022-11-20T13:29:18.255Z,20.67
2022-11-20T13:30:29.994Z,20.10
2022-11-20T13:31:36.498Z,20.20
2022-11-20T13:33:05.663Z,20.85
2022-11-20T13:34:12.781Z,20.30
2022-11-20T13:35:28.877Z,20.98
2022-11-20T13:36:33.523Z,20.75
2022-11-20T13:37:39.267Z,20.23
2022-11-20T13:38:56.998Z,21.00
2022-11-20T13:40:09.011Z,20.88
2022-11-20T13:41:36.505Z,21.98
2022-11-20T13:43:21.942Z,20.13
2022-11-20T13:44:43.043Z,20.90
2022-11-20T13:46:04.709Z,18.20
2022-11-20T13:47:26.826Z,20.63
2022-11-20T13:48:47.819Z,21.02
2022-11-20T13:49:52.310Z,19.38
2022-11-20T13:51:25.111Z,21.00
2022-11-20T13:53:11.115Z,22.38
2022-11-20T13:54:20.308Z,21.05
2022-11-20T13:55:42.215Z,20.10
2022-11-20T13:57:16.901Z,22.15
2022-11-20T13:59:04.774Z,20.50
2022-11-20T14:00:19.491Z,21.42
2022-11-20T14:01:27.313Z,21.70
2022-11-20T14:02:31.540Z,21.17
2022-11-20T14:05:02.462Z,19.30
2022-11-20T14:06:23.427Z,19.63
2022-11-20T14:08:49.750Z,18.45
2022-11-20T14:09:58.626Z,20.15
2022-11-20T14:11:25.241Z,18.75
2022-11-20T14:12:34.638Z,20.33
2022-11-20T14:13:37.928Z,20.40
2022-11-20T14:14:54.278Z,20.25
2022-11-20T14:16:00.172Z,20.27
2022-11-20T14:17:09.162Z,19.25
2022-11-20T14:18:22.882Z,19.80
2022-11-20T14:19:31.716Z,19.88
2022-11-20T14:20:35.269Z,18.73
2022-11-20T14:21:38.262Z,20.75
2022-11-20T14:22:48.924Z,21.58
2022-11-20T14:23:55.588Z,20.75
2022-11-20T14:25:32.061Z,19.58
2022-11-20T14:26:36.214Z,19.48
2022-11-20T14:27:42.124Z,20.08
2022-11-20T14:28:52.224Z,19.83
2022-11-20T14:29:55.806Z,20.02
2022-11-20T14:30:59.325Z,20.73
2022-11-20T14:32:03.900Z,22.17
2022-11-20T14:33:07.054Z,21.25
2022-11-20T14:34:27.026Z,20.73
2022-11-20T14:35:45.196Z,20.52
2022-11-20T14:36:49.022Z,21.08
2022-11-20T14:37:53.291Z,21.45
2022-11-20T14:38:56.410Z,20.45
2022-11-20T14:40:01.782Z,21.63
2022-11-20T14:41:10.155Z,22.23
2022-11-20T14:42:25.883Z,20.00
2022-11-20T14:43:29.934Z,21.00
2022-11-20T14:44:38.394Z,21.15
2022-11-20T14:45:42.311Z,19.27
2022-11-20T14:46:45.627Z,22.25
2022-11-20T14:47:49.906Z,19.92
2022-11-20T14:48:58.011Z,20.83
2022-11-20T14:50:07.234Z,19.92
2022-11-20T14:51:29.270Z,21.88
2022-11-20T14:52:32.370Z,18.88
2022-11-20T14:53:35.363Z,21.75
2022-11-20T14:54:52.834Z,20.58
2022-11-20T14:56:02.237Z,21.17
2022-11-20T14:57:05.693Z,20.67